createdAt,value
2022-10-09T00:00:29.030Z,21.60
2022-10-09T00:02:30.743Z,21.59
2022-10-09T00:04:32.407Z,21.57
2022-10-09T00:06:34.527Z,21.57
2022-10-09T00:08:36.913Z,21.61
2022-10-09T00:10:44.584Z,21.60
2022-10-09T00:12:46.480Z,21.60
2022-10-09T00:14:48.302Z,21.58
2022-10-09T00:16:49.993Z,21.60
2022-10-09T00:18:51.761Z,21.55
2022-10-09T00:20:53.438Z,21.52
2022-10-09T00:22:55.070Z,21.54
2022-10-09T00:24:56.748Z,21.53
2022-10-09T00:26:58.400Z,21.56
2022-10-09T00:29:00.147Z,21.56
2022-10-09T00:31:05.023Z,21.55
2022-10-09T00:33:06.780Z,21.58
2022-10-09T00:35:08.630Z,21.59
2022-10-09T00:37:10.275Z,21.58
2022-10-09T00:39:11.954Z,21.56
2022-10-09T00:41:19.213Z,21.56
2022-10-09T00:43:44.153Z,21.57
2022-10-09T00:45:50.129Z,21.58
2022-10-09T00:47:53.570Z,21.57
2022-10-09T00:50:02.205Z,21.58
2022-10-09T00:52:04.847Z,21.57
2022-10-09T00:54:08.020Z,21.55
2022-10-09T00:56:09.677Z,21.52
2022-10-09T00:58:12.292Z,21.51
2022-10-09T01:00:14.143Z,21.53
2022-10-09T01:02:15.782Z,21.57
2022-10-09T01:04:17.530Z,21.57
2022-10-09T01:06:47.234Z,21.59
2022-10-09T01:08:51.625Z,21.54
2022-10-09T01:10:59.448Z,21.54
2022-10-09T01:13:13.054Z,21.53
2022-10-09T01:15:31.146Z,21.58
2022-10-09T01:17:56.253Z,21.61
2022-10-09T01:20:34.656Z,21.54
2022-10-09T01:23:00.471Z,21.53
2022-10-09T01:25:06.046Z,21.52
2022-10-09T01:27:23.760Z,21.53
2022-10-09T01:29:27.769Z,21.53
2022-10-09T01:31:31.642Z,21.55
2022-10-09T01:33:33.446Z,21.56
2022-10-09T01:35:35.102Z,21.56
2022-10-09T01:37:36.745Z,21.53
2022-10-09T01:39:38.445Z,21.53
2022-10-09T01:41:40.135Z,21.52
2022-10-09T01:43:41.799Z,21.55
2022-10-09T01:45:43.992Z,21.56
2022-10-09T01:47:45.683Z,21.54
2022-10-09T01:49:53.197Z,21.56
2022-10-09T01:52:02.312Z,21.55
2022-10-09T01:54:04.194Z,21.55
2022-10-09T01:56:13.976Z,21.57
2022-10-09T01:58:30.746Z,21.56
2022-10-09T02:00:35.825Z,21.56
2022-10-09T02:02:37.502Z,21.54
2022-10-09T02:04:39.334Z,21.52
2022-10-09T02:06:41.147Z,21.58
2022-10-09T02:08:43.352Z,21.56
2022-10-09T02:10:45.039Z,21.55
2022-10-09T02:13:00.564Z,21.54
2022-10-09T02:15:02.263Z,21.55
2022-10-09T02:17:25.655Z,21.53
2022-10-09T02:19:31.884Z,21.55
2022-10-09T02:22:01.565Z,21.53
2022-10-09T02:24:03.239Z,21.55
2022-10-09T02:26:05.069Z,21.55
2022-10-09T02:28:06.844Z,21.55
2022-10-09T02:30:08.888Z,21.57
2022-10-09T02:32:10.788Z,21.59
2022-10-09T02:34:14.279Z,21.55
2022-10-09T02:36:16.015Z,21.55
2022-10-09T02:38:17.699Z,21.55
2022-10-09T02:40:19.415Z,21.53
2022-10-09T02:42:21.037Z,21.56
2022-10-09T02:44:22.694Z,21.55
2022-10-09T02:46:24.595Z,21.54
2022-10-09T02:48:26.289Z,21.54
2022-10-09T02:50:27.936Z,21.53
2022-10-09T02:52:29.542Z,21.55
2022-10-09T02:54:31.191Z,21.56
2022-10-09T02:56:36.659Z,21.57
2022-10-09T02:58:40.418Z,21.57
2022-10-09T03:00:42.107Z,21.57
2022-10-09T03:02:43.818Z,21.59
2022-10-09T03:04:45.581Z,21.60
2022-10-09T03:06:47.248Z,21.59
2022-10-09T03:08:49.344Z,21.61
2022-10-09T03:10:51.065Z,21.58
2022-10-09T03:12:52.725Z,21.59
2022-10-09T03:14:54.364Z,21.60
2022-10-09T03:16:56.047Z,21.60
2022-10-09T03:18:57.755Z,21.62
2022-10-09T03:20:59.472Z,21.63
2022-10-09T03:23:01.122Z,21.60
2022-10-09T03:25:02.793Z,21.59
2022-10-09T03:27:04.465Z,21.59
2022-10-09T03:29:06.138Z,21.58
2022-10-09T03:31:08.138Z,21.60
2022-10-09T03:33:09.865Z,21.60
2022-10-09T03:35:11.466Z,21.61
2022-10-09T03:37:13.100Z,21.60
2022-10-09T03:39:14.740Z,21.59
2022-10-09T03:41:16.373Z,21.57
2022-10-09T03:43:18.142Z,21.58
2022-10-09T03:45:19.794Z,21.60
2022-10-09T03:47:21.489Z,21.62
2022-10-09T03:49:23.151Z,21.61
2022-10-09T03:51:24.778Z,21.60
2022-10-09T03:53:26.441Z,21.59
2022-10-09T03:55:28.108Z,21.62
2022-10-09T03:57:29.733Z,21.59
2022-10-09T03:59:31.405Z,21.60
2022-10-09T04:01:33.375Z,21.61
2022-10-09T04:03:35.025Z,21.58
2022-10-09T04:05:36.611Z,21.58
2022-10-09T04:07:38.227Z,21.56
2022-10-09T04:09:39.880Z,21.58
2022-10-09T04:11:41.540Z,21.59
2022-10-09T04:13:43.179Z,21.60
2022-10-09T04:15:50.807Z,21.60
2022-10-09T04:17:52.430Z,21.60
2022-10-09T04:19:54.083Z,21.62
2022-10-09T04:21:55.781Z,21.60
2022-10-09T04:23:57.365Z,21.60
2022-10-09T04:25:59.538Z,21.59
2022-10-09T04:28:01.286Z,21.59
2022-10-09T04:30:03.647Z,21.62
2022-10-09T04:32:05.683Z,21.62
2022-10-09T04:34:07.330Z,21.62
2022-10-09T04:36:08.956Z,21.61
2022-10-09T04:38:10.630Z,21.65
2022-10-09T04:40:12.293Z,21.64
2022-10-09T04:42:13.981Z,21.64
2022-10-09T04:44:15.715Z,21.65
2022-10-09T04:46:17.431Z,21.65
2022-10-09T04:48:19.281Z,21.65
2022-10-09T04:50:20.967Z,21.66
2022-10-09T04:52:22.626Z,21.66
2022-10-09T04:54:24.219Z,21.68
2022-10-09T04:56:25.901Z,21.67
2022-10-09T04:58:27.537Z,21.69
2022-10-09T05:00:29.173Z,21.70
2022-10-09T05:02:31.284Z,21.70
2022-10-09T05:04:33.002Z,21.68
2022-10-09T05:06:34.639Z,21.69
2022-10-09T05:08:36.461Z,21.68
2022-10-09T05:10:38.031Z,21.69
2022-10-09T05:12:39.675Z,21.69
2022-10-09T05:14:41.319Z,21.69
2022-10-09T05:17:08.303Z,21.65
2022-10-09T05:19:04.566Z,21.64
2022-10-09T05:21:06.370Z,21.62
2022-10-09T05:23:08.044Z,21.62
2022-10-09T05:25:10.001Z,21.60
2022-10-09T05:27:11.674Z,21.59
2022-10-09T05:29:13.321Z,21.60
2022-10-09T05:31:27.847Z,21.61
2022-10-09T05:33:29.585Z,21.59
2022-10-09T05:35:31.196Z,21.59
2022-10-09T05:37:32.817Z,21.59
2022-10-09T05:39:34.431Z,21.58
2022-10-09T05:41:36.090Z,21.60
2022-10-09T05:43:39.442Z,21.60
2022-10-09T05:45:41.099Z,21.61
2022-10-09T05:47:42.810Z,21.63
2022-10-09T05:49:44.420Z,21.64
2022-10-09T05:51:46.026Z,21.66
2022-10-09T05:53:47.796Z,21.66
2022-10-09T05:55:49.417Z,21.67
2022-10-09T05:57:53.082Z,21.68
2022-10-09T05:59:54.771Z,21.68
2022-10-09T06:01:56.463Z,21.69
2022-10-09T06:03:58.967Z,21.70
2022-10-09T06:06:01.397Z,21.71
2022-10-09T06:08:02.989Z,21.74
2022-10-09T06:10:05.029Z,21.71
2022-10-09T06:12:06.721Z,21.75
2022-10-09T06:14:09.576Z,21.76
2022-10-09T06:16:12.088Z,21.77
2022-10-09T06:18:13.778Z,21.80
2022-10-09T06:20:15.481Z,21.82
2022-10-09T06:22:17.130Z,21.82
2022-10-09T06:24:25.572Z,21.81
2022-10-09T06:26:29.803Z,21.80
2022-10-09T06:28:31.998Z,21.80
2022-10-09T06:30:38.420Z,21.79
2022-10-09T06:32:40.470Z,21.78
2022-10-09T06:34:42.122Z,21.79
2022-10-09T06:36:43.741Z,21.81
2022-10-09T06:38:45.482Z,21.84
2022-10-09T06:40:47.111Z,21.85
2022-10-09T06:42:48.890Z,21.84
2022-10-09T06:44:50.613Z,21.83
2022-10-09T06:46:52.303Z,21.85
2022-10-09T06:48:53.989Z,21.85
2022-10-09T06:50:55.626Z,21.84
2022-10-09T06:52:57.277Z,21.87
2022-10-09T06:54:58.923Z,21.85
2022-10-09T06:57:01.753Z,21.85
2022-10-09T06:59:04.236Z,21.83
2022-10-09T07:01:09.819Z,21.81
2022-10-09T07:03:11.582Z,21.80
2022-10-09T07:05:13.364Z,21.78
2022-10-09T07:07:15.073Z,21.80
2022-10-09T07:09:16.795Z,21.78
2022-10-09T07:11:22.998Z,21.78
2022-10-09T07:13:24.727Z,21.77
2022-10-09T07:15:26.387Z,21.80
2022-10-09T07:17:28.157Z,21.84
2022-10-09T07:19:31.039Z,21.84
2022-10-09T07:21:32.676Z,21.85
2022-10-09T07:23:34.766Z,21.87
2022-10-09T07:25:39.327Z,21.87
2022-10-09T07:27:40.956Z,21.87
2022-10-09T07:29:42.616Z,21.89
2022-10-09T07:31:44.564Z,21.87
2022-10-09T07:33:53.122Z,21.82
2022-10-09T07:35:55.672Z,21.80
2022-10-09T07:37:57.317Z,21.83
2022-10-09T07:39:58.989Z,21.83
2022-10-09T07:42:00.669Z,21.83
2022-10-09T07:44:02.369Z,21.81
2022-10-09T07:46:05.012Z,21.82
2022-10-09T07:48:06.702Z,21.82
2022-10-09T07:50:08.468Z,21.82
2022-10-09T07:52:10.110Z,21.80
2022-10-09T07:54:11.760Z,21.76
2022-10-09T07:56:14.903Z,21.76
2022-10-09T07:58:16.818Z,21.74
2022-10-09T08:00:18.587Z,21.73
2022-10-09T08:02:20.382Z,21.72
2022-10-09T08:04:22.267Z,21.69
2022-10-09T08:06:23.990Z,21.71
2022-10-09T08:08:25.660Z,21.75
2022-10-09T08:10:30.080Z,21.73
2022-10-09T08:12:31.563Z,21.66
2022-10-09T08:14:33.328Z,21.66
2022-10-09T08:16:34.991Z,21.67
2022-10-09T08:18:36.712Z,21.69
2022-10-09T08:20:38.599Z,21.70
2022-10-09T08:22:40.273Z,21.69
2022-10-09T08:24:41.867Z,21.69
2022-10-09T08:26:43.490Z,21.64
2022-10-09T08:28:49.463Z,21.65
2022-10-09T08:30:51.207Z,21.65
2022-10-09T08:32:52.922Z,21.61
2022-10-09T08:34:54.540Z,21.65
2022-10-09T08:36:56.252Z,21.69
2022-10-09T08:38:58.352Z,21.74
2022-10-09T08:41:21.631Z,21.67
2022-10-09T08:43:34.459Z,21.69
2022-10-09T08:45:36.137Z,21.69
2022-10-09T08:47:46.692Z,21.63
2022-10-09T08:50:00.403Z,21.61
2022-10-09T08:52:14.510Z,21.67
2022-10-09T08:54:29.879Z,21.67
2022-10-09T08:56:32.505Z,21.70
2022-10-09T08:58:35.597Z,21.70
2022-10-09T09:00:49.421Z,21.73
2022-10-09T09:03:06.443Z,21.71
2022-10-09T09:05:29.052Z,21.63
2022-10-09T09:07:43.760Z,21.59
2022-10-09T09:09:55.529Z,21.65
2022-10-09T09:12:00.042Z,21.69
2022-10-09T09:14:40.805Z,21.70
2022-10-09T09:17:03.669Z,21.67
2022-10-09T09:19:23.215Z,21.70
2022-10-09T09:21:30.541Z,21.71
2022-10-09T09:23:37.112Z,21.73
2022-10-09T09:25:40.240Z,21.75
2022-10-09T09:27:41.867Z,21.77
2022-10-09T09:29:46.483Z,21.74
2022-10-09T09:31:48.224Z,21.68
2022-10-09T09:34:13.126Z,21.72
2022-10-09T09:36:22.703Z,21.79
2022-10-09T09:38:24.310Z,21.77
2022-10-09T09:40:38.483Z,21.82
2022-10-09T09:42:40.958Z,21.83
2022-10-09T09:44:56.086Z,21.86
2022-10-09T09:46:57.783Z,21.87
2022-10-09T09:48:59.549Z,21.86
2022-10-09T09:51:23.444Z,21.87
2022-10-09T09:53:50.056Z,21.86
2022-10-09T09:55:52.571Z,21.84
2022-10-09T09:58:06.164Z,21.82
2022-10-09T10:00:16.789Z,21.72
2022-10-09T10:02:22.475Z,21.67
2022-10-09T10:04:24.160Z,21.70
2022-10-09T10:06:29.676Z,21.72
2022-10-09T10:08:32.563Z,21.76
2022-10-09T10:10:34.204Z,21.71
2022-10-09T10:12:43.534Z,21.67
2022-10-09T10:14:49.475Z,21.73
2022-10-09T10:16:52.387Z,21.75
2022-10-09T10:18:54.951Z,21.75
2022-10-09T10:21:01.528Z,21.80
2022-10-09T10:23:03.158Z,21.86
2022-10-09T10:25:05.148Z,21.88
2022-10-09T10:27:39.709Z,21.84
2022-10-09T10:29:42.607Z,21.85
2022-10-09T10:32:02.506Z,21.81
2022-10-09T10:34:04.441Z,21.83
2022-10-09T10:36:06.374Z,21.88
2022-10-09T10:38:29.994Z,21.90
2022-10-09T10:41:06.335Z,21.91
2022-10-09T10:43:14.731Z,21.88
2022-10-09T10:45:18.317Z,21.84
2022-10-09T10:47:22.182Z,21.75
2022-10-09T10:49:23.895Z,21.77
2022-10-09T10:51:43.509Z,21.83
2022-10-09T10:54:09.093Z,21.87
2022-10-09T10:56:21.884Z,21.83
2022-10-09T10:58:30.689Z,21.76
2022-10-09T11:00:32.398Z,21.73
2022-10-09T11:02:40.946Z,21.75
2022-10-09T11:05:14.770Z,21.69
2022-10-09T11:07:41.178Z,21.71
2022-10-09T11:09:54.857Z,21.75
2022-10-09T11:12:03.189Z,21.72
2022-10-09T11:14:20.232Z,21.70
2022-10-09T11:16:34.429Z,21.66
2022-10-09T11:18:51.255Z,21.60
2022-10-09T11:21:13.196Z,21.67
2022-10-09T11:23:21.886Z,21.66
2022-10-09T11:25:31.032Z,21.62
2022-10-09T11:27:58.023Z,21.61
2022-10-09T11:30:02.416Z,21.64
2022-10-09T11:32:17.884Z,21.66
2022-10-09T11:34:29.593Z,21.64
2022-10-09T11:36:37.515Z,21.69
2022-10-09T11:38:59.043Z,21.74
2022-10-09T11:41:06.467Z,21.74
2022-10-09T11:43:28.354Z,21.72
2022-10-09T11:45:30.650Z,21.65
2022-10-09T11:47:46.517Z,21.66
2022-10-09T11:50:16.853Z,21.67
2022-10-09T11:52:33.709Z,21.63
2022-10-09T11:54:35.389Z,21.65
2022-10-09T11:56:37.024Z,21.62
2022-10-09T11:58:38.718Z,21.63
2022-10-09T12:00:40.663Z,21.63
2022-10-09T12:02:42.450Z,21.66
2022-10-09T12:04:54.330Z,21.60
2022-10-09T12:07:04.538Z,21.55
2022-10-09T12:09:07.326Z,21.49
2022-10-09T12:11:08.963Z,21.51
2022-10-09T12:13:38.776Z,21.50
2022-10-09T12:15:52.940Z,21.55
2022-10-09T12:17:54.528Z,21.58
2022-10-09T12:20:08.878Z,21.62
2022-10-09T12:22:37.721Z,21.66
2022-10-09T12:24:39.863Z,21.69
2022-10-09T12:26:41.457Z,21.71
2022-10-09T12:28:51.394Z,21.71
2022-10-09T12:30:53.210Z,21.71
2022-10-09T12:33:01.166Z,21.74
2022-10-09T12:35:11.174Z,21.76
2022-10-09T12:37:18.054Z,21.75
2022-10-09T12:39:20.589Z,21.75
2022-10-09T12:41:29.429Z,21.72
2022-10-09T12:43:31.314Z,21.73
2022-10-09T12:45:33.067Z,21.77
2022-10-09T12:47:34.816Z,21.76
2022-10-09T12:49:36.485Z,21.77
2022-10-09T12:51:38.112Z,21.79
2022-10-09T12:53:46.488Z,21.79
2022-10-09T12:55:51.997Z,21.79
2022-10-09T12:57:55.066Z,21.81
2022-10-09T12:59:56.665Z,21.80
2022-10-09T13:01:58.898Z,21.81
2022-10-09T13:04:02.090Z,21.81
2022-10-09T13:06:17.644Z,21.79
2022-10-09T13:08:28.172Z,21.74
2022-10-09T13:10:29.917Z,21.73
2022-10-09T13:12:31.700Z,21.71
2022-10-09T13:14:42.423Z,21.71
2022-10-09T13:16:44.940Z,21.74
2022-10-09T13:19:03.569Z,21.73
2022-10-09T13:21:17.639Z,21.73
2022-10-09T13:23:33.655Z,21.73
2022-10-09T13:25:37.458Z,21.76
2022-10-09T13:27:39.264Z,21.77
2022-10-09T13:29:43.716Z,21.76
2022-10-09T13:31:45.353Z,21.76
2022-10-09T13:33:47.132Z,21.77
2022-10-09T13:35:48.777Z,21.78
2022-10-09T13:37:50.638Z,21.77
2022-10-09T13:39:57.204Z,21.76
2022-10-09T13:41:58.929Z,21.77
2022-10-09T13:44:00.598Z,21.78
2022-10-09T13:46:02.300Z,21.77
2022-10-09T13:48:04.051Z,21.79
2022-10-09T13:50:05.891Z,21.77
2022-10-09T13:52:07.555Z,21.77
2022-10-09T13:54:09.168Z,21.76
2022-10-09T13:56:10.844Z,21.75
2022-10-09T13:58:12.499Z,21.76
2022-10-09T14:00:14.479Z,21.75
2022-10-09T14:02:16.146Z,21.73
2022-10-09T14:04:17.870Z,21.77
2022-10-09T14:06:19.550Z,21.78
2022-10-09T14:08:21.143Z,21.78
2022-10-09T14:10:23.990Z,21.80
2022-10-09T14:12:25.863Z,21.79
2022-10-09T14:14:27.510Z,21.78
2022-10-09T14:16:29.704Z,21.78
2022-10-09T14:18:31.391Z,21.77
2022-10-09T14:20:33.646Z,21.78
2022-10-09T14:22:35.371Z,21.79
2022-10-09T14:24:37.113Z,21.80
2022-10-09T14:26:38.687Z,21.80
2022-10-09T14:28:40.359Z,21.76
2022-10-09T14:30:42.673Z,21.77
2022-10-09T14:32:44.336Z,21.77
2022-10-09T14:34:46.086Z,21.77
2022-10-09T14:36:47.950Z,21.79
2022-10-09T14:38:49.609Z,21.78
2022-10-09T14:40:51.208Z,21.78
2022-10-09T14:42:52.953Z,21.76
2022-10-09T14:44:54.767Z,21.78
2022-10-09T14:46:56.456Z,21.77
2022-10-09T14:48:58.219Z,21.77
2022-10-09T14:51:07.823Z,21.76
2022-10-09T14:53:09.457Z,21.77
2022-10-09T14:55:11.115Z,21.78
2022-10-09T14:57:12.759Z,21.77
2022-10-09T14:59:14.330Z,21.76
2022-10-09T15:01:17.424Z,21.76
2022-10-09T15:03:19.059Z,21.76
2022-10-09T15:05:20.721Z,21.77
2022-10-09T15:07:22.470Z,21.76
2022-10-09T15:09:24.182Z,21.77
2022-10-09T15:11:26.353Z,21.76
2022-10-09T15:13:28.060Z,21.75
2022-10-09T15:15:32.582Z,21.77
2022-10-09T15:17:34.426Z,21.77
2022-10-09T15:19:36.104Z,21.77
2022-10-09T15:21:37.793Z,21.77
2022-10-09T15:23:39.738Z,21.75
2022-10-09T15:25:48.352Z,21.76
2022-10-09T15:27:53.894Z,21.77
2022-10-09T15:29:56.433Z,21.77
2022-10-09T15:31:58.099Z,21.77
2022-10-09T15:33:59.942Z,21.76
2022-10-09T15:36:02.671Z,21.75
2022-10-09T15:38:04.331Z,21.76
2022-10-09T15:40:06.579Z,21.76
2022-10-09T15:42:08.282Z,21.76
2022-10-09T15:44:15.443Z,21.77
2022-10-09T15:46:17.207Z,21.75
2022-10-09T15:48:23.276Z,21.77
2022-10-09T15:50:24.876Z,21.74
2022-10-09T15:52:26.524Z,21.76
2022-10-09T15:54:28.145Z,21.77
2022-10-09T15:56:29.948Z,21.76
2022-10-09T15:58:31.645Z,21.76
2022-10-09T16:00:37.782Z,21.75
2022-10-09T16:02:39.435Z,21.77
2022-10-09T16:04:41.103Z,21.77
2022-10-09T16:06:42.745Z,21.75
2022-10-09T16:08:44.440Z,21.76
2022-10-09T16:10:49.909Z,21.74
2022-10-09T16:12:51.757Z,21.72
2022-10-09T16:14:53.591Z,21.73
2022-10-09T16:16:55.774Z,21.74
2022-10-09T16:18:57.472Z,21.73
2022-10-09T16:21:10.357Z,21.73
2022-10-09T16:23:12.126Z,21.72
2022-10-09T16:25:13.781Z,21.72
2022-10-09T16:27:15.469Z,21.73
2022-10-09T16:29:17.133Z,21.71
2022-10-09T16:31:22.727Z,21.73
2022-10-09T16:33:24.370Z,21.75
2022-10-09T16:35:26.047Z,21.74
2022-10-09T16:37:27.689Z,21.74
2022-10-09T16:39:29.313Z,21.72
2022-10-09T16:41:31.047Z,21.73
2022-10-09T16:43:34.041Z,21.74
2022-10-09T16:45:35.788Z,21.74
2022-10-09T16:47:37.420Z,21.75
2022-10-09T16:49:39.059Z,21.74
2022-10-09T16:51:40.711Z,21.74
2022-10-09T16:53:42.638Z,21.74
2022-10-09T16:55:44.309Z,21.75
2022-10-09T16:57:46.001Z,21.75
2022-10-09T16:59:47.658Z,21.74
2022-10-09T17:01:49.324Z,21.75
2022-10-09T17:03:50.927Z,21.76
2022-10-09T17:05:52.676Z,21.76
2022-10-09T17:07:54.633Z,21.76
2022-10-09T17:09:56.333Z,21.73
2022-10-09T17:11:58.025Z,21.75
2022-10-09T17:13:59.678Z,21.75
2022-10-09T17:16:03.971Z,21.74
2022-10-09T17:18:05.670Z,21.74
2022-10-09T17:20:07.878Z,21.74
2022-10-09T17:22:09.531Z,21.78
2022-10-09T17:24:14.717Z,21.78
2022-10-09T17:26:17.910Z,21.77
2022-10-09T17:28:19.566Z,21.74
2022-10-09T17:30:21.326Z,21.74
2022-10-09T17:32:22.954Z,21.74
2022-10-09T17:34:24.609Z,21.70
2022-10-09T17:36:27.401Z,21.72
2022-10-09T17:38:28.977Z,21.73
2022-10-09T17:40:30.611Z,21.73
2022-10-09T17:42:32.266Z,21.72
2022-10-09T17:44:33.979Z,21.73
2022-10-09T17:46:35.629Z,21.72
2022-10-09T17:48:37.262Z,21.73
2022-10-09T17:50:38.878Z,21.72
2022-10-09T17:52:40.487Z,21.76
2022-10-09T17:54:42.098Z,21.77
2022-10-09T17:56:43.829Z,21.73
2022-10-09T17:58:45.542Z,21.70
2022-10-09T18:00:47.250Z,21.71
2022-10-09T18:02:49.338Z,21.70
2022-10-09T18:04:50.983Z,21.70
2022-10-09T18:06:52.615Z,21.70
2022-10-09T18:08:54.881Z,21.70
2022-10-09T18:11:04.852Z,21.70
2022-10-09T18:13:07.058Z,21.71
2022-10-09T18:15:09.103Z,21.70
2022-10-09T18:17:10.884Z,21.88
2022-10-09T18:19:14.457Z,22.03
2022-10-09T18:21:16.433Z,21.95
2022-10-09T18:23:22.397Z,21.87
2022-10-09T18:25:24.551Z,21.84
2022-10-09T18:27:26.187Z,21.83
2022-10-09T18:29:27.857Z,21.80
2022-10-09T18:31:29.615Z,21.75
2022-10-09T18:33:31.281Z,21.77
2022-10-09T18:35:36.033Z,21.78
2022-10-09T18:37:37.714Z,21.80
2022-10-09T18:39:39.498Z,21.88
2022-10-09T18:41:41.309Z,21.86
2022-10-09T18:43:43.026Z,21.85
2022-10-09T18:45:45.304Z,21.78
2022-10-09T18:47:46.980Z,21.80
2022-10-09T18:49:50.839Z,21.84
2022-10-09T18:51:52.617Z,21.99
2022-10-09T18:54:00.302Z,22.50
2022-10-09T18:56:02.294Z,22.42
2022-10-09T18:58:04.160Z,22.20
2022-10-09T19:00:06.309Z,22.05
2022-10-09T19:02:08.033Z,22.27
2022-10-09T19:04:09.714Z,22.42
2022-10-09T19:06:11.415Z,22.33
2022-10-09T19:08:13.113Z,22.17
2022-10-09T19:10:14.811Z,22.07
2022-10-09T19:12:17.467Z,22.03
2022-10-09T19:14:19.362Z,22.01
2022-10-09T19:16:21.799Z,22.00
2022-10-09T19:18:23.573Z,21.99
2022-10-09T19:20:25.272Z,21.96
2022-10-09T19:22:26.997Z,21.95
2022-10-09T19:24:33.978Z,21.95
2022-10-09T19:26:35.984Z,21.97
2022-10-09T19:28:37.886Z,21.95
2022-10-09T19:30:40.510Z,21.95
2022-10-09T19:32:42.233Z,21.94
2022-10-09T19:34:43.935Z,21.94
2022-10-09T19:36:49.152Z,21.95
2022-10-09T19:38:50.829Z,21.93
2022-10-09T19:40:53.848Z,21.95
2022-10-09T19:42:55.524Z,21.93
2022-10-09T19:44:57.241Z,21.93
2022-10-09T19:46:58.912Z,21.95
2022-10-09T19:49:01.021Z,21.95
2022-10-09T19:51:08.563Z,21.97
2022-10-09T19:53:10.775Z,22.00
2022-10-09T19:55:12.769Z,22.02
2022-10-09T19:57:14.472Z,22.01
2022-10-09T19:59:16.159Z,22.02
2022-10-09T20:01:19.582Z,22.01
2022-10-09T20:03:21.305Z,22.01
2022-10-09T20:05:23.149Z,22.00
2022-10-09T20:07:24.844Z,21.99
2022-10-09T20:09:26.517Z,21.96
2022-10-09T20:11:28.314Z,21.97
2022-10-09T20:13:30.989Z,21.98
2022-10-09T20:15:32.836Z,21.97
2022-10-09T20:17:35.176Z,21.98
2022-10-09T20:19:36.886Z,21.97
2022-10-09T20:21:38.601Z,21.99
2022-10-09T20:23:40.416Z,21.99
2022-10-09T20:25:42.089Z,21.99
2022-10-09T20:27:43.802Z,21.98
2022-10-09T20:29:45.491Z,21.95
2022-10-09T20:31:47.170Z,21.94
2022-10-09T20:33:49.210Z,21.95
2022-10-09T20:35:50.899Z,21.92
2022-10-09T20:37:52.569Z,21.90
2022-10-09T20:39:54.276Z,21.94
2022-10-09T20:41:56.008Z,21.97
2022-10-09T20:43:58.771Z,21.97
2022-10-09T20:46:00.448Z,21.99
2022-10-09T20:48:02.168Z,21.99
2022-10-09T20:50:03.976Z,21.95
2022-10-09T20:52:05.764Z,21.93
2022-10-09T20:54:07.832Z,21.91
2022-10-09T20:56:11.970Z,21.90
2022-10-09T20:58:13.619Z,21.90
2022-10-09T21:00:15.309Z,21.89
2022-10-09T21:02:17.491Z,21.89
2022-10-09T21:04:19.200Z,21.93
2022-10-09T21:06:21.268Z,21.92
2022-10-09T21:08:22.987Z,21.94
2022-10-09T21:10:24.653Z,21.93
2022-10-09T21:12:26.401Z,21.92
2022-10-09T21:14:28.082Z,21.91
2022-10-09T21:16:29.883Z,21.93
2022-10-09T21:18:31.519Z,21.92
2022-10-09T21:20:35.785Z,21.92
2022-10-09T21:22:37.489Z,21.92
2022-10-09T21:24:39.239Z,21.93
2022-10-09T21:26:40.989Z,21.93
2022-10-09T21:28:42.827Z,21.92
2022-10-09T21:30:44.640Z,21.92
2022-10-09T21:32:46.491Z,21.92
2022-10-09T21:34:48.203Z,21.95
2022-10-09T21:37:19.424Z,21.94
2022-10-09T21:39:12.025Z,21.95
2022-10-09T21:41:13.671Z,21.95
2022-10-09T21:43:15.589Z,21.94
2022-10-09T21:45:17.265Z,21.94
2022-10-09T21:47:18.970Z,21.93
2022-10-09T21:49:25.540Z,21.92
2022-10-09T21:51:27.601Z,21.95
2022-10-09T21:53:29.289Z,21.93
2022-10-09T21:55:31.085Z,21.95
2022-10-09T21:57:32.869Z,21.98
2022-10-09T21:59:34.594Z,22.01
2022-10-09T22:01:36.346Z,22.02
2022-10-09T22:03:38.135Z,22.01
2022-10-09T22:05:40.281Z,21.99
2022-10-09T22:07:41.937Z,21.98
2022-10-09T22:09:43.801Z,21.98
2022-10-09T22:11:45.495Z,21.95
2022-10-09T22:13:47.264Z,21.99
2022-10-09T22:15:51.172Z,22.02
2022-10-09T22:17:53.160Z,22.03
2022-10-09T22:19:54.880Z,22.04
2022-10-09T22:21:56.513Z,22.03
2022-10-09T22:23:59.849Z,22.03
2022-10-09T22:26:04.106Z,22.00
2022-10-09T22:28:06.070Z,21.99
2022-10-09T22:30:08.583Z,22.00
2022-10-09T22:32:10.232Z,22.00
2022-10-09T22:34:11.904Z,21.99
2022-10-09T22:36:15.646Z,22.00
2022-10-09T22:38:17.330Z,22.01
2022-10-09T22:40:19.085Z,21.97
2022-10-09T22:42:20.707Z,21.97
2022-10-09T22:44:22.398Z,21.98
2022-10-09T22:46:26.125Z,21.98
2022-10-09T22:48:27.824Z,21.98
2022-10-09T22:50:29.496Z,21.99
2022-10-09T22:52:31.334Z,21.99
2022-10-09T22:54:33.077Z,21.97
2022-10-09T22:56:39.484Z,21.98
2022-10-09T22:58:41.186Z,22.00
2022-10-09T23:00:42.802Z,21.99
2022-10-09T23:02:44.527Z,22.00
2022-10-09T23:04:46.272Z,22.00
2022-10-09T23:06:52.908Z,22.01
2022-10-09T23:08:54.729Z,22.02
2022-10-09T23:10:56.455Z,22.00
2022-10-09T23:12:58.144Z,22.00
2022-10-09T23:14:59.943Z,22.02
2022-10-09T23:17:01.629Z,22.03
2022-10-09T23:19:06.706Z,22.01
2022-10-09T23:21:11.066Z,22.02
2022-10-09T23:23:12.772Z,22.02
2022-10-09T23:25:14.413Z,22.02
2022-10-09T23:27:16.238Z,22.03
2022-10-09T23:29:18.426Z,22.05
2022-10-09T23:31:20.181Z,22.02
2022-10-09T23:33:21.819Z,22.03
2022-10-09T23:35:23.536Z,22.05
2022-10-09T23:37:25.221Z,22.04
2022-10-09T23:39:26.884Z,22.04
2022-10-09T23:41:28.828Z,22.03
2022-10-09T23:43:30.964Z,22.02
2022-10-09T23:45:32.714Z,22.06
2022-10-09T23:47:34.338Z,22.08
2022-10-09T23:49:37.034Z,22.10
2022-10-09T23:51:38.672Z,22.11
2022-10-09T23:53:40.627Z,22.14
2022-10-09T23:55:42.408Z,22.16
2022-10-09T23:57:44.100Z,22.17
2022-10-09T23:59:45.803Z,22.16
